^^
Station Historical Data
Daily Summary for May 30, 2017 Units:  Metric    English   Both
« Previous Day
Next Day »
Daily Weekly Monthly Yearly Custom
  High: Low: Average:
Temperature: 25.3 °C 8.7 °C 16.6 °C
Dew Point: 6.1 °C -6 °C -0.7 °C
Humidity: 41% 24% 31%
Wind Speed: 27.4km/h 0km/h 4.8km/h
Wind Gust: 29km/h - -
Wind- - East
Pressure: 1022.9 hPa 1018.2 hPa -
Precipitation: 0 mm    
Historical Graphs
 
 
Tabular Data for May 30, 2017
Time Temperature Dew Point Pressure Wind Wind Speed Wind Gust Humidity Rainfall Rate (Hourly) solar Conditions
00:01 15.8 °C -4.2 °C 1021.6 hPa NE 11.1 km/h 11.3 km/h 25% 0 mm 0.0 W/m2
00:07 15.8 °C -4.2 °C 1021.6 hPa NE 6.4 km/h 11.3 km/h 25% 0 mm 0.0 W/m2
00:17 15.6 °C -4.4 °C 1021.6 hPa NE 6.4 km/h 11.3 km/h 25% 0 mm 0.0 W/m2
00:27 15.5 °C -4.5 °C 1021.6 hPa NE 6.4 km/h 8 km/h 25% 0 mm 0.0 W/m2
00:32 15.4 °C -4.5 °C 1021.6 hPa NE 4.7 km/h 8 km/h 25% 0 mm 0.0 W/m2
00:37 15.2 °C -4.2 °C 1021.6 hPa NE 6.4 km/h 6.4 km/h 26% 0 mm 0.0 W/m2
00:47 14.8 °C -4.5 °C 1021.6 hPa Calm     26% 0 mm 0.0 W/m2
00:57 14.3 °C -4.5 °C 1021.6 hPa Calm     27% 0 mm 0.0 W/m2
01:02 14 °C -4.7 °C 1021.6 hPa Calm     27% 0 mm 0.0 W/m2
01:12 13.2 °C -4.9 °C 1021.6 hPa Calm     28% 0 mm 0.0 W/m2
01:28 12.9 °C -4.3 °C 1021.6 hPa Calm     30% 0 mm 0.0 W/m2
01:33 13.4 °C -4.3 °C 1021.6 hPa Calm     29% 0 mm 0.0 W/m2
01:39 13.5 °C -4.7 °C 1021.6 hPa Calm     28% 0 mm 0.0 W/m2
01:44 13.6 °C -4.6 °C 1021.6 hPa Calm     28% 0 mm 0.0 W/m2
01:49 13.6 °C -4.6 °C 1021.6 hPa Calm     28% 0 mm 0.0 W/m2
01:54 13.5 °C -4.7 °C 1021.6 hPa Calm     28% 0 mm 0.0 W/m2
01:59 13.4 °C -4.8 °C 1021.6 hPa Calm     28% 0 mm 0.0 W/m2
02:04 13.2 °C -4.5 °C 1021.6 hPa NE 4.7 km/h 4.8 km/h 29% 0 mm 0.0 W/m2
02:09 13.8 °C -4.4 °C 1021.6 hPa Calm   4.8 km/h 28% 0 mm 0.0 W/m2
02:14 14.1 °C -4.6 °C 1021.6 hPa NE 9.7 km/h 9.7 km/h 27% 0 mm 0.0 W/m2
02:19 14 °C -4.7 °C 1021.6 hPa NE 6.4 km/h 11.3 km/h 27% 0 mm 0.0 W/m2
02:24 13.3 °C -4.8 °C 1021.6 hPa Calm   8 km/h 28% 0 mm 0.0 W/m2
02:30 12.6 °C -5 °C 1021.6 hPa Calm   8 km/h 29% 0 mm 0.0 W/m2
02:35 11.9 °C -5.1 °C 1021.6 hPa NE 9.7 km/h 9.7 km/h 30% 0 mm 0.0 W/m2
02:40 11.4 °C -5.1 °C 1021.6 hPa Calm   8 km/h 31% 0 mm 0.0 W/m2
02:45 11.5 °C -5.1 °C 1021.6 hPa Calm   9.7 km/h 31% 0 mm 0.0 W/m2
02:50 11.3 °C -5.2 °C 1021.6 hPa NE 3.2 km/h 9.7 km/h 31% 0 mm 0.0 W/m2
02:55 11.1 °C -5.4 °C 1021.6 hPa Calm     31% 0 mm 0.0 W/m2
03:01 10.9 °C -5.2 °C 1021.6 hPa Calm     32% 0 mm 0.0 W/m2
03:06 10.6 °C -5.4 °C 1021.6 hPa NE 6.4 km/h 11.3 km/h 32% 0 mm 0.0 W/m2
03:11 10.2 °C -5.4 °C 1021.6 hPa NE 3.2 km/h 9.7 km/h 33% 0 mm 0.0 W/m2
03:16 10.1 °C -5.5 °C 1021.6 hPa Calm   6.4 km/h 33% 0 mm 0.0 W/m2
03:21 10.2 °C -5.4 °C 1021.9 hPa NE 3.2 km/h 4.8 km/h 33% 0 mm 0.0 W/m2
03:31 10.9 °C -4.8 °C 1021.6 hPa NE 3.2 km/h 8 km/h 33% 0 mm 0.0 W/m2
03:36 11.7 °C -4.9 °C 1021.6 hPa NE 11.1 km/h 11.3 km/h 31% 0 mm 0.0 W/m2
03:41 12.3 °C -5.2 °C 1021.6 hPa Calm   12.9 km/h 29% 0 mm 0.0 W/m2
03:46 12.5 °C -5.1 °C 1021.6 hPa NE 7.9 km/h 9.7 km/h 29% 0 mm 0.0 W/m2
03:51 12.4 °C -5.2 °C 1021.6 hPa NE 1.4 km/h 14.5 km/h 29% 0 mm 0.0 W/m2
03:56 12.9 °C -5.2 °C 1021.6 hPa NE 11.1 km/h 14.5 km/h 28% 0 mm 0.0 W/m2
04:01 13.3 °C -5.3 °C 1021.6 hPa NE 16.3 km/h 16.3 km/h 27% 0 mm 0.0 W/m2
04:06 13.5 °C -5.1 °C 1021.6 hPa NE 11.1 km/h 17.7 km/h 27% 0 mm 0.0 W/m2
04:11 13.6 °C -5.1 °C 1021.6 hPa NNE 3.2 km/h 12.9 km/h 27% 0 mm 0.0 W/m2
04:21 13.4 °C -5.2 °C 1021.6 hPa NNE 1.4 km/h 11.3 km/h 27% 0 mm 0.0 W/m2
04:26 13.4 °C -5.2 °C 1021.6 hPa NNE 3.2 km/h 11.3 km/h 27% 0 mm 0.0 W/m2
04:31 13.3 °C -5.3 °C 1021.6 hPa NNE 7.9 km/h 9.7 km/h 27% 0 mm 0.0 W/m2
04:36 13.3 °C -5.3 °C 1021.6 hPa NNE 9.7 km/h 17.7 km/h 27% 0 mm 0.0 W/m2
04:41 13.3 °C -5.3 °C 1021.6 hPa NNE 9.7 km/h 17.7 km/h 27% 0 mm 0.0 W/m2
04:51 13.2 °C -5.4 °C 1021.6 hPa North 7.9 km/h 17.7 km/h 27% 0 mm 0.0 W/m2
04:57 13.1 °C -5 °C 1021.6 hPa NNE 1.4 km/h 12.9 km/h 28% 0 mm 0.0 W/m2
05:02 12.9 °C -5.2 °C 1021.6 hPa Calm   11.3 km/h 28% 0 mm 0.0 W/m2
05:07 12.5 °C -5.1 °C 1021.6 hPa NE 7.9 km/h 11.3 km/h 29% 0 mm 0.0 W/m2
05:12 12.1 °C -5.4 °C 1021.6 hPa NE 4.7 km/h 11.3 km/h 29% 0 mm 0.0 W/m2
05:22 11.4 °C -5.6 °C 1021.9 hPa NE 4.7 km/h 9.7 km/h 30% 0 mm 0.0 W/m2
05:27 11.3 °C -5.2 °C 1021.9 hPa NE 6.4 km/h 9.7 km/h 31% 0 mm 0.0 W/m2
05:32 11.2 °C -5.3 °C 1021.9 hPa Calm   6.4 km/h 31% 0 mm 0.0 W/m2
05:37 11 °C -5.5 °C 1021.9 hPa NE 6.4 km/h 9.7 km/h 31% 0 mm 0.0 W/m2
05:43 10.8 °C -5.7 °C 1021.9 hPa Calm     31% 0 mm 0.0 W/m2
05:49 10.5 °C -5.5 °C 1021.9 hPa Calm     32% 0 mm 0.0 W/m2
05:56 9.9 °C -6 °C 1021.9 hPa Calm     32% 0 mm 0.0 W/m2
06:08 9.2 °C -5.9 °C 1022.2 hPa Calm   6.4 km/h 34% 0 mm 0.0 W/m2
06:24 9.4 °C -5.7 °C 1022.2 hPa Calm     34% 0 mm 0.0 W/m2
06:55 8.7 °C -5.5 °C 1022.2 hPa Calm     36% 0 mm 14.0 W/m2
07:10 8.9 °C -5.4 °C 1022.6 hPa Calm     36% 0 mm 21.0 W/m2
07:26 10.2 °C -2.8 °C 1022.6 hPa Calm   6.4 km/h 40% 0 mm 63.0 W/m2
07:39 11.9 °C -1.6 °C 1022.6 hPa Calm   6.4 km/h 39% 0 mm 135.0 W/m2
07:52 12.7 °C -1.3 °C 1022.6 hPa Calm     38% 0 mm 178.0 W/m2
08:08 13.7 °C 0 °C 1022.9 hPa NE 1.4 km/h 3.2 km/h 39% 0 mm 229.0 W/m2
08:22 15.9 °C 2 °C 1022.9 hPa Calm     39% 0 mm 274.0 W/m2
08:37 17.1 °C 3 °C 1022.9 hPa NNE 3.2 km/h 14.5 km/h 39% 0 mm 316.0 W/m2
08:46 17.4 °C 3.3 °C 1022.6 hPa North 3.2 km/h 14.5 km/h 39% 0 mm 346.0 W/m2
08:54 17.7 °C 3.9 °C 1022.6 hPa North 9.7 km/h 20.9 km/h 40% 0 mm 369.0 W/m2
09:03 18.2 °C 4.4 °C 1022.6 hPa North 19.5 km/h 24.1 km/h 40% 0 mm 392.0 W/m2
09:08 18.5 °C 5 °C 1022.6 hPa North 3.2 km/h 22.5 km/h 41% 0 mm 404.0 W/m2
09:14 18.8 °C 4.9 °C 1022.6 hPa North 9.7 km/h 16.1 km/h 40% 0 mm 413.0 W/m2
09:23 19.1 °C 5.2 °C 1022.6 hPa NNE 20.9 km/h 27.4 km/h 40% 0 mm 436.0 W/m2
09:28 19.3 °C 5 °C 1022.6 hPa North 22.7 km/h 25.7 km/h 39% 0 mm 446.0 W/m2
09:38 19.4 °C 5.1 °C 1022.6 hPa North 14.3 km/h 19.3 km/h 39% 0 mm 469.0 W/m2
09:48 19.9 °C 5.5 °C 1022.6 hPa North 11.1 km/h 20.9 km/h 39% 0 mm 487.0 W/m2
09:58 20.1 °C 5.3 °C 1022.6 hPa North 14.3 km/h 27.4 km/h 38% 0 mm 506.0 W/m2
10:18 21 °C 6.1 °C 1022.2 hPa NNW 3.2 km/h 25.7 km/h 38% 0 mm 527.0 W/m2
10:50 21.7 °C 6 °C 1022.2 hPa NNW 9.7 km/h 29 km/h 36% 0 mm 573.0 W/m2
11:05 22 °C 5.8 °C 1021.9 hPa NNE 27.4 km/h 27.4 km/h 35% 0 mm 587.0 W/m2
11:19 22.2 °C 6 °C 1021.6 hPa NNW 17.7 km/h 24.1 km/h 35% 0 mm 596.0 W/m2
11:34 22.2 °C 5.6 °C 1021.2 hPa North 9.7 km/h 20.9 km/h 34% 0 mm 603.0 W/m2
11:48 22.5 °C 5.9 °C 1021.2 hPa NNW 17.7 km/h 29 km/h 34% 0 mm 605.0 W/m2
11:58 22.6 °C 5.9 °C 1021.2 hPa North 25.9 km/h 27.4 km/h 34% 0 mm 605.0 W/m2
12:27 23.3 °C 6.1 °C 1020.5 hPa NNW 9.7 km/h 17.7 km/h 33% 0 mm 592.0 W/m2
12:37 23.6 °C 5.9 °C 1020.5 hPa NNW 13 km/h 19.3 km/h 32% 0 mm 585.0 W/m2
12:48 23.8 °C 5.7 °C 1020.2 hPa North 11.1 km/h 19.3 km/h 31% 0 mm 578.0 W/m2
12:57 24 °C 5.8 °C 1019.9 hPa Calm   24.1 km/h 31% 0 mm 566.0 W/m2
13:15 24.2 °C 5 °C 1019.5 hPa North 13 km/h 22.5 km/h 29% 0 mm 545.0 W/m2
13:29 24.5 °C 5.8 °C 1019.2 hPa NNE 6.4 km/h 14.5 km/h 30% 0 mm 524.0 W/m2
13:41 24.8 °C 5.1 °C 1019.2 hPa Calm   20.9 km/h 28% 0 mm 503.0 W/m2
13:46 24.9 °C 3.5 °C 1019.2 hPa North 3.2 km/h 19.3 km/h 25% 0 mm 494.0 W/m2
13:52 24.9 °C 3.5 °C 1018.8 hPa North 1.4 km/h 14.5 km/h 25% 0 mm 482.0 W/m2
14:20 25.1 °C 4.2 °C 1018.8 hPa North 19.5 km/h 20.9 km/h 26% 0 mm 434.0 W/m2
14:49 25.3 °C 4.4 °C 1018.8 hPa NNW 6.4 km/h 19.3 km/h 26% 0 mm 360.0 W/m2
15:05 25.3 °C 4.4 °C 1018.5 hPa North 11.1 km/h 20.9 km/h 26% 0 mm 322.0 W/m2
15:19 24.9 °C 4.6 °C 1018.5 hPa NE 13 km/h 17.7 km/h 27% 0 mm 283.0 W/m2
15:28 25.2 °C 3.2 °C 1018.5 hPa North 9.7 km/h 14.5 km/h 24% 0 mm 255.0 W/m2
15:38 25.1 °C 4.8 °C 1018.5 hPa Calm   16.1 km/h 27% 0 mm 223.0 W/m2
15:47 24.9 °C 4.6 °C 1018.2 hPa Calm   11.3 km/h 27% 0 mm 186.0 W/m2
16:23 24.7 °C 3.9 °C 1018.2 hPa North 1.4 km/h 11.3 km/h 26% 0 mm 67.0 W/m2
16:33 24.5 °C 3.7 °C 1018.2 hPa North 6.4 km/h 16.1 km/h 26% 0 mm 44.0 W/m2
16:41 24.3 °C 3.6 °C 1018.2 hPa Calm   9.7 km/h 26% 0 mm 21.0 W/m2
16:53 23.9 °C 2.7 °C 1018.5 hPa Calm     25% 0 mm 9.0 W/m2
16:58 23.7 °C 2.5 °C 1018.2 hPa Calm     25% 0 mm 7.0 W/m2
17:08 23.4 °C 2.8 °C 1018.2 hPa Calm   3.2 km/h 26% 0 mm 0.0 W/m2
17:17 23.2 °C 3.2 °C 1018.5 hPa Calm   6.4 km/h 27% 0 mm 0.0 W/m2
17:22 23 °C 3 °C 1018.2 hPa Calm     27% 0 mm 0.0 W/m2
17:28 22.9 °C 3.4 °C 1018.5 hPa Calm   3.2 km/h 28% 0 mm 0.0 W/m2
17:37 22.8 °C 3.3 °C 1018.5 hPa Calm     28% 0 mm 0.0 W/m2
17:43 22.7 °C 3.2 °C 1018.5 hPa Calm     28% 0 mm 0.0 W/m2
18:51 17.4 °C 1.8 °C 1019.2 hPa Calm     35% 0 mm 0.0 W/m2
19:02 17.3 °C 2.1 °C 1019.2 hPa Calm     36% 0 mm 0.0 W/m2
19:09 17.2 °C 2 °C 1019.2 hPa Calm     36% 0 mm 0.0 W/m2
19:24 17.5 °C 2.3 °C 1019.5 hPa Calm     36% 0 mm 0.0 W/m2
19:40 17.3 °C 1.7 °C 1019.5 hPa Calm     35% 0 mm 0.0 W/m2
19:55 16.7 °C 1.9 °C 1019.5 hPa Calm     37% 0 mm 0.0 W/m2
20:16 16 °C 1.7 °C 1019.5 hPa Calm     38% 0 mm 0.0 W/m2
20:23 16 °C 1.7 °C 1019.5 hPa Calm     38% 0 mm 0.0 W/m2
20:38 16.3 °C 2 °C 1019.5 hPa Calm     38% 0 mm 0.0 W/m2
20:54 16.8 °C 2.4 °C 1019.5 hPa Calm     38% 0 mm 0.0 W/m2
21:22 17.6 °C 2.7 °C 1019.5 hPa NNE 3.2 km/h 9.7 km/h 37% 0 mm 0.0 W/m2
21:33 17.7 °C 2.4 °C 1019.5 hPa NNE 3.2 km/h 11.3 km/h 36% 0 mm 0.0 W/m2
21:41 17.6 °C 2.3 °C 1019.5 hPa Calm   9.7 km/h 36% 0 mm 0.0 W/m2
Canyon Roadhouse, Fishriver Canyon, Namibia
Compliments of Weather Underground - 2.25 mb